sensor_id;sensor_type;location;lat;lon;timestamp;P1;durP1;ratioP1;P2;durP2;ratioP2
69847;SDS011;57143;55.940;37.496;2023-08-21T00:02:20;7.38;;;2.80;;
69847;SDS011;57143;55.940;37.496;2023-08-21T00:04:47;7.67;;;3.00;;
69847;SDS011;57143;55.940;37.496;2023-08-21T00:07:15;8.13;;;3.08;;
69847;SDS011;57143;55.940;37.496;2023-08-21T00:09:43;6.32;;;2.55;;
69847;SDS011;57143;55.940;37.496;2023-08-21T00:12:10;8.35;;;2.67;;
69847;SDS011;57143;55.940;37.496;2023-08-21T00:14:38;7.80;;;3.10;;
69847;SDS011;57143;55.940;37.496;2023-08-21T00:17:05;7.17;;;3.13;;
69847;SDS011;57143;55.940;37.496;2023-08-21T00:19:32;7.85;;;3.28;;
69847;SDS011;57143;55.940;37.496;2023-08-21T00:21:59;8.65;;;3.88;;
69847;SDS011;57143;55.940;37.496;2023-08-21T00:24:26;9.82;;;4.00;;
69847;SDS011;57143;55.940;37.496;2023-08-21T00:26:55;10.32;;;3.35;;
69847;SDS011;57143;55.940;37.496;2023-08-21T00:29:22;8.70;;;3.23;;
69847;SDS011;57143;55.940;37.496;2023-08-21T00:31:49;8.25;;;3.40;;
69847;SDS011;57143;55.940;37.496;2023-08-21T00:34:17;6.25;;;2.25;;
69847;SDS011;57143;55.940;37.496;2023-08-21T00:36:44;8.15;;;3.25;;
69847;SDS011;57143;55.940;37.496;2023-08-21T00:39:11;7.72;;;2.92;;
69847;SDS011;57143;55.940;37.496;2023-08-21T00:41:38;9.13;;;3.30;;
69847;SDS011;57143;55.940;37.496;2023-08-21T00:44:07;7.15;;;3.35;;
69847;SDS011;57143;55.940;37.496;2023-08-21T00:46:34;9.55;;;3.13;;
69847;SDS011;57143;55.940;37.496;2023-08-21T00:49:01;9.70;;;3.17;;
69847;SDS011;57143;55.940;37.496;2023-08-21T00:51:29;7.43;;;2.63;;
69847;SDS011;57143;55.940;37.496;2023-08-21T00:53:56;8.73;;;3.53;;
69847;SDS011;57143;55.940;37.496;2023-08-21T00:56:23;7.60;;;2.55;;
69847;SDS011;57143;55.940;37.496;2023-08-21T00:58:51;6.35;;;2.97;;
69847;SDS011;57143;55.940;37.496;2023-08-21T01:01:20;6.95;;;2.65;;
69847;SDS011;57143;55.940;37.496;2023-08-21T01:03:51;8.52;;;2.88;;
69847;SDS011;57143;55.940;37.496;2023-08-21T01:06:18;9.50;;;2.80;;
69847;SDS011;57143;55.940;37.496;2023-08-21T01:08:47;8.30;;;2.47;;
69847;SDS011;57143;55.940;37.496;2023-08-21T01:11:24;7.30;;;2.28;;
69847;SDS011;57143;55.940;37.496;2023-08-21T01:13:59;7.32;;;2.53;;
69847;SDS011;57143;55.940;37.496;2023-08-21T01:16:34;7.03;;;2.80;;
69847;SDS011;57143;55.940;37.496;2023-08-21T01:19:04;7.63;;;2.50;;
69847;SDS011;57143;55.940;37.496;2023-08-21T01:21:38;5.97;;;2.10;;
69847;SDS011;57143;55.940;37.496;2023-08-21T01:24:07;8.02;;;2.92;;
69847;SDS011;57143;55.940;37.496;2023-08-21T01:26:34;9.40;;;2.63;;
69847;SDS011;57143;55.940;37.496;2023-08-21T01:29:01;11.18;;;2.80;;
69847;SDS011;57143;55.940;37.496;2023-08-21T01:31:30;6.83;;;2.37;;
69847;SDS011;57143;55.940;37.496;2023-08-21T01:34:04;7.35;;;2.28;;
69847;SDS011;57143;55.940;37.496;2023-08-21T01:36:33;9.02;;;2.60;;
69847;SDS011;57143;55.940;37.496;2023-08-21T01:39:01;9.40;;;2.25;;
69847;SDS011;57143;55.940;37.496;2023-08-21T01:41:30;6.32;;;2.22;;
69847;SDS011;57143;55.940;37.496;2023-08-21T01:43:57;6.67;;;2.40;;
69847;SDS011;57143;55.940;37.496;2023-08-21T01:46:24;6.57;;;2.30;;
69847;SDS011;57143;55.940;37.496;2023-08-21T01:48:51;8.10;;;2.70;;
69847;SDS011;57143;55.940;37.496;2023-08-21T01:51:19;6.85;;;2.55;;
69847;SDS011;57143;55.940;37.496;2023-08-21T01:53:47;7.95;;;2.30;;
69847;SDS011;57143;55.940;37.496;2023-08-21T01:56:14;6.30;;;2.30;;
69847;SDS011;57143;55.940;37.496;2023-08-21T01:58:42;6.10;;;2.03;;
69847;SDS011;57143;55.940;37.496;2023-08-21T02:01:10;8.73;;;2.50;;
69847;SDS011;57143;55.940;37.496;2023-08-21T02:03:37;8.07;;;2.65;;
69847;SDS011;57143;55.940;37.496;2023-08-21T02:06:04;6.40;;;2.40;;
69847;SDS011;57143;55.940;37.496;2023-08-21T02:08:31;7.77;;;2.67;;
69847;SDS011;57143;55.940;37.496;2023-08-21T02:10:59;8.07;;;2.40;;
69847;SDS011;57143;55.940;37.496;2023-08-21T02:13:26;11.85;;;2.90;;
69847;SDS011;57143;55.940;37.496;2023-08-21T02:15:55;6.72;;;2.60;;
69847;SDS011;57143;55.940;37.496;2023-08-21T02:18:42;8.40;;;2.60;;
69847;SDS011;57143;55.940;37.496;2023-08-21T02:21:09;6.70;;;2.60;;
69847;SDS011;57143;55.940;37.496;2023-08-21T02:23:36;6.80;;;2.40;;
69847;SDS011;57143;55.940;37.496;2023-08-21T02:26:03;7.65;;;2.53;;
69847;SDS011;57143;55.940;37.496;2023-08-21T02:28:30;7.00;;;2.25;;
69847;SDS011;57143;55.940;37.496;2023-08-21T02:30:59;6.15;;;2.72;;
69847;SDS011;57143;55.940;37.496;2023-08-21T02:33:26;6.63;;;2.27;;
69847;SDS011;57143;55.940;37.496;2023-08-21T02:35:53;7.10;;;2.58;;
69847;SDS011;57143;55.940;37.496;2023-08-21T02:38:21;9.43;;;2.78;;
69847;SDS011;57143;55.940;37.496;2023-08-21T02:40:48;7.05;;;2.17;;
69847;SDS011;57143;55.940;37.496;2023-08-21T02:43:15;8.07;;;2.72;;
69847;SDS011;57143;55.940;37.496;2023-08-21T02:45:42;6.50;;;2.33;;
69847;SDS011;57143;55.940;37.496;2023-08-21T02:48:11;7.30;;;2.45;;
69847;SDS011;57143;55.940;37.496;2023-08-21T02:50:38;7.25;;;2.55;;
69847;SDS011;57143;55.940;37.496;2023-08-21T02:53:07;6.72;;;2.30;;
69847;SDS011;57143;55.940;37.496;2023-08-21T02:55:34;6.07;;;2.08;;
69847;SDS011;57143;55.940;37.496;2023-08-21T02:58:01;6.47;;;1.90;;
69847;SDS011;57143;55.940;37.496;2023-08-21T03:00:29;5.75;;;1.88;;
69847;SDS011;57143;55.940;37.496;2023-08-21T03:02:56;6.88;;;2.20;;
69847;SDS011;57143;55.940;37.496;2023-08-21T03:05:24;7.40;;;2.28;;
69847;SDS011;57143;55.940;37.496;2023-08-21T03:07:52;6.55;;;1.98;;
69847;SDS011;57143;55.940;37.496;2023-08-21T03:10:19;6.33;;;2.07;;
69847;SDS011;57143;55.940;37.496;2023-08-21T03:12:48;6.45;;;1.83;;
69847;SDS011;57143;55.940;37.496;2023-08-21T03:15:15;6.72;;;2.25;;
69847;SDS011;57143;55.940;37.496;2023-08-21T03:17:42;6.60;;;1.65;;
69847;SDS011;57143;55.940;37.496;2023-08-21T03:20:10;5.15;;;1.92;;
69847;SDS011;57143;55.940;37.496;2023-08-21T03:22:39;5.30;;;1.80;;
69847;SDS011;57143;55.940;37.496;2023-08-21T03:25:07;7.55;;;1.60;;
69847;SDS011;57143;55.940;37.496;2023-08-21T03:27:35;5.65;;;1.95;;
69847;SDS011;57143;55.940;37.496;2023-08-21T03:30:05;5.65;;;1.95;;
69847;SDS011;57143;55.940;37.496;2023-08-21T03:32:33;5.95;;;2.00;;
69847;SDS011;57143;55.940;37.496;2023-08-21T03:35:01;6.00;;;1.80;;
69847;SDS011;57143;55.940;37.496;2023-08-21T03:37:29;5.65;;;1.80;;
69847;SDS011;57143;55.940;37.496;2023-08-21T03:39:58;5.80;;;1.83;;
69847;SDS011;57143;55.940;37.496;2023-08-21T03:42:25;5.50;;;1.60;;
69847;SDS011;57143;55.940;37.496;2023-08-21T03:44:52;6.03;;;1.77;;
69847;SDS011;57143;55.940;37.496;2023-08-21T03:47:19;5.10;;;1.80;;
69847;SDS011;57143;55.940;37.496;2023-08-21T03:49:47;6.30;;;2.00;;
69847;SDS011;57143;55.940;37.496;2023-08-21T03:52:14;6.00;;;2.10;;
69847;SDS011;57143;55.940;37.496;2023-08-21T03:54:41;5.68;;;1.77;;
69847;SDS011;57143;55.940;37.496;2023-08-21T03:57:10;5.68;;;1.90;;
69847;SDS011;57143;55.940;37.496;2023-08-21T03:59:37;7.57;;;2.17;;
69847;SDS011;57143;55.940;37.496;2023-08-21T04:02:04;5.70;;;1.50;;
69847;SDS011;57143;55.940;37.496;2023-08-21T04:04:32;6.78;;;1.75;;
69847;SDS011;57143;55.940;37.496;2023-08-21T04:06:59;4.95;;;1.50;;
69847;SDS011;57143;55.940;37.496;2023-08-21T04:09:26;6.68;;;1.48;;
69847;SDS011;57143;55.940;37.496;2023-08-21T04:11:53;4.63;;;1.50;;
69847;SDS011;57143;55.940;37.496;2023-08-21T04:14:22;5.38;;;1.65;;
69847;SDS011;57143;55.940;37.496;2023-08-21T04:16:49;4.80;;;1.73;;
69847;SDS011;57143;55.940;37.496;2023-08-21T04:19:16;5.35;;;1.52;;
69847;SDS011;57143;55.940;37.496;2023-08-21T04:21:44;7.00;;;1.77;;
69847;SDS011;57143;55.940;37.496;2023-08-21T04:24:11;5.80;;;1.73;;
69847;SDS011;57143;55.940;37.496;2023-08-21T04:26:38;6.20;;;1.55;;
69847;SDS011;57143;55.940;37.496;2023-08-21T04:29:05;6.55;;;1.80;;
69847;SDS011;57143;55.940;37.496;2023-08-21T04:31:34;5.60;;;1.70;;
69847;SDS011;57143;55.940;37.496;2023-08-21T04:34:01;4.72;;;1.65;;
69847;SDS011;57143;55.940;37.496;2023-08-21T04:36:29;4.80;;;1.40;;
69847;SDS011;57143;55.940;37.496;2023-08-21T04:38:56;5.22;;;1.90;;
69847;SDS011;57143;55.940;37.496;2023-08-21T04:41:23;4.82;;;1.40;;
69847;SDS011;57143;55.940;37.496;2023-08-21T04:43:50;4.70;;;1.52;;
69847;SDS011;57143;55.940;37.496;2023-08-21T04:46:18;5.20;;;1.50;;
69847;SDS011;57143;55.940;37.496;2023-08-21T04:48:47;5.67;;;1.50;;
69847;SDS011;57143;55.940;37.496;2023-08-21T04:51:14;4.65;;;1.45;;
69847;SDS011;57143;55.940;37.496;2023-08-21T04:53:41;6.45;;;1.83;;
69847;SDS011;57143;55.940;37.496;2023-08-21T04:56:08;5.82;;;1.60;;
69847;SDS011;57143;55.940;37.496;2023-08-21T04:58:35;5.88;;;1.60;;
69847;SDS011;57143;55.940;37.496;2023-08-21T05:01:04;4.77;;;1.67;;
69847;SDS011;57143;55.940;37.496;2023-08-21T05:03:31;5.55;;;1.40;;
69847;SDS011;57143;55.940;37.496;2023-08-21T05:06:00;4.82;;;1.60;;
69847;SDS011;57143;55.940;37.496;2023-08-21T05:08:27;5.45;;;1.67;;
69847;SDS011;57143;55.940;37.496;2023-08-21T05:10:54;5.72;;;1.50;;
69847;SDS011;57143;55.940;37.496;2023-08-21T05:13:22;4.20;;;1.40;;
69847;SDS011;57143;55.940;37.496;2023-08-21T05:15:52;4.68;;;1.48;;
69847;SDS011;57143;55.940;37.496;2023-08-21T05:18:20;4.95;;;1.98;;
69847;SDS011;57143;55.940;37.496;2023-08-21T05:20:48;4.50;;;1.65;;
69847;SDS011;57143;55.940;37.496;2023-08-21T05:23:17;5.00;;;1.42;;
69847;SDS011;57143;55.940;37.496;2023-08-21T05:25:44;6.00;;;1.97;;
69847;SDS011;57143;55.940;37.496;2023-08-21T05:28:12;4.80;;;1.70;;
69847;SDS011;57143;55.940;37.496;2023-08-21T05:30:39;4.90;;;2.20;;
69847;SDS011;57143;55.940;37.496;2023-08-21T05:33:06;4.43;;;1.50;;
69847;SDS011;57143;55.940;37.496;2023-08-21T05:35:34;5.38;;;1.88;;
69847;SDS011;57143;55.940;37.496;2023-08-21T05:38:01;5.70;;;1.43;;
69847;SDS011;57143;55.940;37.496;2023-08-21T05:40:30;6.43;;;1.70;;
69847;SDS011;57143;55.940;37.496;2023-08-21T05:42:58;6.63;;;1.80;;
69847;SDS011;57143;55.940;37.496;2023-08-21T05:45:25;5.55;;;1.23;;
69847;SDS011;57143;55.940;37.496;2023-08-21T05:47:53;5.20;;;2.03;;
69847;SDS011;57143;55.940;37.496;2023-08-21T05:50:20;4.50;;;1.50;;
69847;SDS011;57143;55.940;37.496;2023-08-21T05:52:47;5.40;;;1.50;;
69847;SDS011;57143;55.940;37.496;2023-08-21T05:55:15;5.22;;;1.50;;
69847;SDS011;57143;55.940;37.496;2023-08-21T05:57:43;5.28;;;1.85;;
69847;SDS011;57143;55.940;37.496;2023-08-21T06:00:11;4.93;;;1.50;;
69847;SDS011;57143;55.940;37.496;2023-08-21T06:02:39;5.07;;;1.80;;
69847;SDS011;57143;55.940;37.496;2023-08-21T06:05:10;5.88;;;1.67;;
69847;SDS011;57143;55.940;37.496;2023-08-21T06:07:38;5.43;;;1.55;;
69847;SDS011;57143;55.940;37.496;2023-08-21T06:10:07;4.82;;;1.88;;
69847;SDS011;57143;55.940;37.496;2023-08-21T06:12:38;4.65;;;1.38;;
69847;SDS011;57143;55.940;37.496;2023-08-21T06:15:07;6.73;;;1.77;;
69847;SDS011;57143;55.940;37.496;2023-08-21T06:17:37;6.25;;;1.90;;
69847;SDS011;57143;55.940;37.496;2023-08-21T06:20:06;4.90;;;1.83;;
69847;SDS011;57143;55.940;37.496;2023-08-21T06:22:34;4.82;;;1.60;;
69847;SDS011;57143;55.940;37.496;2023-08-21T06:25:02;5.03;;;1.50;;
69847;SDS011;57143;55.940;37.496;2023-08-21T06:27:30;4.93;;;1.70;;
69847;SDS011;57143;55.940;37.496;2023-08-21T06:29:58;4.97;;;1.70;;
69847;SDS011;57143;55.940;37.496;2023-08-21T06:32:28;5.10;;;1.70;;
69847;SDS011;57143;55.940;37.496;2023-08-21T06:34:56;7.68;;;2.60;;
69847;SDS011;57143;55.940;37.496;2023-08-21T06:37:23;4.97;;;1.65;;
69847;SDS011;57143;55.940;37.496;2023-08-21T06:39:50;6.40;;;1.50;;
69847;SDS011;57143;55.940;37.496;2023-08-21T06:42:18;5.43;;;1.65;;
69847;SDS011;57143;55.940;37.496;2023-08-21T06:44:45;5.25;;;1.60;;
69847;SDS011;57143;55.940;37.496;2023-08-21T06:47:16;5.75;;;1.60;;
69847;SDS011;57143;55.940;37.496;2023-08-21T06:49:45;5.03;;;1.65;;
69847;SDS011;57143;55.940;37.496;2023-08-21T06:52:13;5.13;;;1.47;;
69847;SDS011;57143;55.940;37.496;2023-08-21T06:54:42;4.35;;;1.40;;
69847;SDS011;57143;55.940;37.496;2023-08-21T06:57:12;4.90;;;1.52;;
69847;SDS011;57143;55.940;37.496;2023-08-21T06:59:39;5.78;;;1.58;;
69847;SDS011;57143;55.940;37.496;2023-08-21T07:02:07;4.50;;;1.50;;
69847;SDS011;57143;55.940;37.496;2023-08-21T07:04:35;4.83;;;1.40;;
69847;SDS011;57143;55.940;37.496;2023-08-21T07:07:17;4.25;;;1.20;;
69847;SDS011;57143;55.940;37.496;2023-08-21T07:09:48;5.50;;;1.80;;
69847;SDS011;57143;55.940;37.496;2023-08-21T07:12:16;4.97;;;1.55;;
69847;SDS011;57143;55.940;37.496;2023-08-21T07:14:44;4.60;;;1.67;;
69847;SDS011;57143;55.940;37.496;2023-08-21T07:17:11;5.23;;;1.70;;
69847;SDS011;57143;55.940;37.496;2023-08-21T07:19:38;4.68;;;1.60;;
69847;SDS011;57143;55.940;37.496;2023-08-21T07:22:06;4.43;;;1.50;;
69847;SDS011;57143;55.940;37.496;2023-08-21T07:24:35;4.63;;;1.83;;
69847;SDS011;57143;55.940;37.496;2023-08-21T07:27:02;5.85;;;1.65;;
69847;SDS011;57143;55.940;37.496;2023-08-21T07:29:30;4.53;;;1.63;;
69847;SDS011;57143;55.940;37.496;2023-08-21T07:31:57;5.63;;;1.73;;
69847;SDS011;57143;55.940;37.496;2023-08-21T07:34:24;4.60;;;1.70;;
69847;SDS011;57143;55.940;37.496;2023-08-21T07:36:51;4.40;;;1.50;;
69847;SDS011;57143;55.940;37.496;2023-08-21T07:39:19;4.50;;;1.52;;
69847;SDS011;57143;55.940;37.496;2023-08-21T07:41:48;7.37;;;1.80;;
69847;SDS011;57143;55.940;37.496;2023-08-21T07:44:15;5.00;;;2.00;;
69847;SDS011;57143;55.940;37.496;2023-08-21T07:46:42;6.43;;;1.90;;
69847;SDS011;57143;55.940;37.496;2023-08-21T07:49:10;5.00;;;1.50;;
69847;SDS011;57143;55.940;37.496;2023-08-21T07:51:37;4.47;;;1.33;;
69847;SDS011;57143;55.940;37.496;2023-08-21T07:54:05;4.60;;;1.47;;
69847;SDS011;57143;55.940;37.496;2023-08-21T07:56:33;5.10;;;1.75;;
69847;SDS011;57143;55.940;37.496;2023-08-21T07:59:08;7.75;;;1.75;;
69847;SDS011;57143;55.940;37.496;2023-08-21T08:01:35;4.35;;;1.33;;
69847;SDS011;57143;55.940;37.496;2023-08-21T08:04:02;4.32;;;1.50;;
69847;SDS011;57143;55.940;37.496;2023-08-21T08:06:31;4.80;;;1.53;;
69847;SDS011;57143;55.940;37.496;2023-08-21T08:08:58;5.50;;;1.73;;
69847;SDS011;57143;55.940;37.496;2023-08-21T08:11:25;4.53;;;1.73;;
69847;SDS011;57143;55.940;37.496;2023-08-21T08:13:53;6.07;;;1.70;;
69847;SDS011;57143;55.940;37.496;2023-08-21T08:16:22;5.88;;;2.00;;
69847;SDS011;57143;55.940;37.496;2023-08-21T08:18:49;5.83;;;1.40;;
69847;SDS011;57143;55.940;37.496;2023-08-21T08:21:16;5.43;;;1.90;;
69847;SDS011;57143;55.940;37.496;2023-08-21T08:23:44;4.82;;;1.48;;
69847;SDS011;57143;55.940;37.496;2023-08-21T08:26:11;4.85;;;1.70;;
69847;SDS011;57143;55.940;37.496;2023-08-21T08:28:38;4.80;;;1.60;;
69847;SDS011;57143;55.940;37.496;2023-08-21T08:31:05;4.83;;;1.80;;
69847;SDS011;57143;55.940;37.496;2023-08-21T08:33:35;4.80;;;1.65;;
69847;SDS011;57143;55.940;37.496;2023-08-21T08:36:02;6.35;;;1.80;;
69847;SDS011;57143;55.940;37.496;2023-08-21T08:38:29;4.85;;;1.38;;
69847;SDS011;57143;55.940;37.496;2023-08-21T08:40:57;6.07;;;2.38;;
69847;SDS011;57143;55.940;37.496;2023-08-21T08:43:26;4.70;;;1.33;;
69847;SDS011;57143;55.940;37.496;2023-08-21T08:45:54;4.75;;;1.42;;
69847;SDS011;57143;55.940;37.496;2023-08-21T08:48:24;5.38;;;1.67;;
69847;SDS011;57143;55.940;37.496;2023-08-21T08:50:53;5.28;;;1.60;;
69847;SDS011;57143;55.940;37.496;2023-08-21T08:53:21;4.40;;;1.60;;
69847;SDS011;57143;55.940;37.496;2023-08-21T08:55:51;4.40;;;1.43;;
69847;SDS011;57143;55.940;37.496;2023-08-21T08:58:18;6.57;;;1.50;;
69847;SDS011;57143;55.940;37.496;2023-08-21T09:00:45;6.03;;;1.63;;
69847;SDS011;57143;55.940;37.496;2023-08-21T09:03:13;6.47;;;1.63;;
69847;SDS011;57143;55.940;37.496;2023-08-21T09:05:41;6.45;;;2.20;;
69847;SDS011;57143;55.940;37.496;2023-08-21T09:08:12;5.23;;;1.67;;
69847;SDS011;57143;55.940;37.496;2023-08-21T09:10:41;5.25;;;1.80;;
69847;SDS011;57143;55.940;37.496;2023-08-21T09:13:11;5.78;;;1.75;;
69847;SDS011;57143;55.940;37.496;2023-08-21T09:15:40;5.00;;;1.40;;
69847;SDS011;57143;55.940;37.496;2023-08-21T09:18:09;5.95;;;1.27;;
69847;SDS011;57143;55.940;37.496;2023-08-21T09:20:37;5.53;;;1.60;;
69847;SDS011;57143;55.940;37.496;2023-08-21T09:23:05;5.35;;;1.50;;
69847;SDS011;57143;55.940;37.496;2023-08-21T09:25:37;5.47;;;1.55;;
69847;SDS011;57143;55.940;37.496;2023-08-21T09:28:05;5.60;;;1.50;;
69847;SDS011;57143;55.940;37.496;2023-08-21T09:30:45;4.50;;;1.60;;
69847;SDS011;57143;55.940;37.496;2023-08-21T09:33:13;4.53;;;1.33;;
69847;SDS011;57143;55.940;37.496;2023-08-21T09:35:44;5.28;;;1.55;;
69847;SDS011;57143;55.940;37.496;2023-08-21T09:38:12;5.05;;;1.35;;
69847;SDS011;57143;55.940;37.496;2023-08-21T09:40:42;4.50;;;1.52;;
69847;SDS011;57143;55.940;37.496;2023-08-21T09:43:10;6.28;;;1.58;;
69847;SDS011;57143;55.940;37.496;2023-08-21T09:45:38;4.70;;;1.43;;
69847;SDS011;57143;55.940;37.496;2023-08-21T09:48:06;4.55;;;1.25;;
69847;SDS011;57143;55.940;37.496;2023-08-21T09:50:35;5.65;;;1.42;;
69847;SDS011;57143;55.940;37.496;2023-08-21T09:53:03;4.97;;;1.40;;
69847;SDS011;57143;55.940;37.496;2023-08-21T09:55:53;5.63;;;1.30;;
69847;SDS011;57143;55.940;37.496;2023-08-21T09:58:21;9.03;;;1.30;;
69847;SDS011;57143;55.940;37.496;2023-08-21T10:00:49;6.07;;;1.40;;
69847;SDS011;57143;55.940;37.496;2023-08-21T10:03:20;5.53;;;1.40;;
69847;SDS011;57143;55.940;37.496;2023-08-21T10:05:49;4.60;;;1.38;;
69847;SDS011;57143;55.940;37.496;2023-08-21T10:08:19;5.15;;;1.30;;
69847;SDS011;57143;55.940;37.496;2023-08-21T10:10:53;4.67;;;1.40;;
69847;SDS011;57143;55.940;37.496;2023-08-21T10:13:22;4.55;;;1.15;;
69847;SDS011;57143;55.940;37.496;2023-08-21T10:15:50;4.30;;;1.30;;
69847;SDS011;57143;55.940;37.496;2023-08-21T10:18:18;5.93;;;1.58;;
69847;SDS011;57143;55.940;37.496;2023-08-21T10:20:46;4.80;;;1.23;;
69847;SDS011;57143;55.940;37.496;2023-08-21T10:23:23;4.30;;;1.27;;
69847;SDS011;57143;55.940;37.496;2023-08-21T10:25:55;4.50;;;1.33;;
69847;SDS011;57143;55.940;37.496;2023-08-21T10:28:23;4.85;;;1.80;;
69847;SDS011;57143;55.940;37.496;2023-08-21T10:30:50;4.80;;;1.40;;
69847;SDS011;57143;55.940;37.496;2023-08-21T10:33:18;6.43;;;1.60;;
69847;SDS011;57143;55.940;37.496;2023-08-21T10:36:14;5.30;;;1.43;;
69847;SDS011;57143;55.940;37.496;2023-08-21T10:39:02;5.90;;;1.48;;
69847;SDS011;57143;55.940;37.496;2023-08-21T10:41:32;4.88;;;1.60;;
69847;SDS011;57143;55.940;37.496;2023-08-21T10:44:04;4.53;;;1.40;;
69847;SDS011;57143;55.940;37.496;2023-08-21T10:49:19;5.77;;;1.50;;
69847;SDS011;57143;55.940;37.496;2023-08-21T10:51:46;6.80;;;2.00;;
69847;SDS011;57143;55.940;37.496;2023-08-21T10:54:16;6.32;;;2.05;;
69847;SDS011;57143;55.940;37.496;2023-08-21T10:56:45;5.97;;;2.40;;
69847;SDS011;57143;55.940;37.496;2023-08-21T10:59:12;5.68;;;1.70;;
69847;SDS011;57143;55.940;37.496;2023-08-21T11:01:42;5.13;;;1.43;;
69847;SDS011;57143;55.940;37.496;2023-08-21T11:04:11;4.35;;;1.30;;
69847;SDS011;57143;55.940;37.496;2023-08-21T11:06:39;3.95;;;1.27;;
69847;SDS011;57143;55.940;37.496;2023-08-21T11:09:12;6.20;;;1.63;;
69847;SDS011;57143;55.940;37.496;2023-08-21T11:11:39;6.60;;;1.50;;
69847;SDS011;57143;55.940;37.496;2023-08-21T11:14:08;6.63;;;1.70;;
69847;SDS011;57143;55.940;37.496;2023-08-21T11:16:37;4.35;;;1.30;;
69847;SDS011;57143;55.940;37.496;2023-08-21T11:19:04;6.55;;;2.20;;
69847;SDS011;57143;55.940;37.496;2023-08-21T11:21:31;4.90;;;1.60;;
69847;SDS011;57143;55.940;37.496;2023-08-21T11:24:00;4.72;;;1.30;;
69847;SDS011;57143;55.940;37.496;2023-08-21T11:26:27;5.77;;;1.90;;
69847;SDS011;57143;55.940;37.496;2023-08-21T11:28:55;4.93;;;1.55;;
69847;SDS011;57143;55.940;37.496;2023-08-21T11:31:24;4.57;;;1.45;;
69847;SDS011;57143;55.940;37.496;2023-08-21T11:33:51;5.82;;;1.83;;
69847;SDS011;57143;55.940;37.496;2023-08-21T11:36:19;4.82;;;1.60;;
69847;SDS011;57143;55.940;37.496;2023-08-21T11:38:57;6.17;;;1.40;;
69847;SDS011;57143;55.940;37.496;2023-08-21T11:41:25;4.45;;;1.35;;
69847;SDS011;57143;55.940;37.496;2023-08-21T11:43:53;7.57;;;1.63;;
69847;SDS011;57143;55.940;37.496;2023-08-21T11:46:31;4.50;;;1.30;;
69847;SDS011;57143;55.940;37.496;2023-08-21T11:48:59;4.85;;;1.20;;
69847;SDS011;57143;55.940;37.496;2023-08-21T11:51:27;5.43;;;1.40;;
69847;SDS011;57143;55.940;37.496;2023-08-21T11:53:54;4.85;;;1.33;;
69847;SDS011;57143;55.940;37.496;2023-08-21T11:56:22;6.00;;;1.60;;
69847;SDS011;57143;55.940;37.496;2023-08-21T11:58:55;5.05;;;1.58;;
69847;SDS011;57143;55.940;37.496;2023-08-21T12:01:24;4.65;;;1.55;;
69847;SDS011;57143;55.940;37.496;2023-08-21T12:03:58;4.60;;;1.20;;
69847;SDS011;57143;55.940;37.496;2023-08-21T12:06:25;4.90;;;1.60;;
69847;SDS011;57143;55.940;37.496;2023-08-21T12:08:57;6.70;;;1.63;;
69847;SDS011;57143;55.940;37.496;2023-08-21T12:11:25;5.53;;;1.85;;
69847;SDS011;57143;55.940;37.496;2023-08-21T12:13:52;5.65;;;1.75;;
69847;SDS011;57143;55.940;37.496;2023-08-21T12:16:20;4.50;;;1.20;;
69847;SDS011;57143;55.940;37.496;2023-08-21T12:18:48;4.90;;;1.40;;
69847;SDS011;57143;55.940;37.496;2023-08-21T12:21:18;5.15;;;1.80;;
69847;SDS011;57143;55.940;37.496;2023-08-21T12:23:45;4.80;;;1.67;;
69847;SDS011;57143;55.940;37.496;2023-08-21T12:26:13;4.20;;;1.20;;
69847;SDS011;57143;55.940;37.496;2023-08-21T12:28:46;6.03;;;1.50;;
69847;SDS011;57143;55.940;37.496;2023-08-21T12:31:13;7.05;;;1.90;;
69847;SDS011;57143;55.940;37.496;2023-08-21T12:33:40;4.75;;;1.70;;
69847;SDS011;57143;55.940;37.496;2023-08-21T12:36:08;6.55;;;1.73;;
69847;SDS011;57143;55.940;37.496;2023-08-21T12:38:38;7.00;;;1.63;;
69847;SDS011;57143;55.940;37.496;2023-08-21T12:41:06;4.43;;;1.30;;
69847;SDS011;57143;55.940;37.496;2023-08-21T12:43:33;5.45;;;1.60;;
69847;SDS011;57143;55.940;37.496;2023-08-21T12:46:00;6.47;;;1.40;;
69847;SDS011;57143;55.940;37.496;2023-08-21T12:48:27;5.78;;;1.20;;
69847;SDS011;57143;55.940;37.496;2023-08-21T12:50:55;5.18;;;1.50;;
69847;SDS011;57143;55.940;37.496;2023-08-21T12:53:23;5.37;;;1.30;;
69847;SDS011;57143;55.940;37.496;2023-08-21T12:55:51;5.38;;;1.55;;
69847;SDS011;57143;55.940;37.496;2023-08-21T12:58:20;4.18;;;1.35;;
69847;SDS011;57143;55.940;37.496;2023-08-21T13:00:47;5.03;;;1.40;;
69847;SDS011;57143;55.940;37.496;2023-08-21T13:03:14;4.43;;;1.30;;
69847;SDS011;57143;55.940;37.496;2023-08-21T13:05:42;5.20;;;1.50;;
69847;SDS011;57143;55.940;37.496;2023-08-21T13:08:09;5.45;;;1.73;;
69847;SDS011;57143;55.940;37.496;2023-08-21T13:10:37;5.55;;;1.58;;
69847;SDS011;57143;55.940;37.496;2023-08-21T13:13:05;5.03;;;1.33;;
69847;SDS011;57143;55.940;37.496;2023-08-21T13:15:33;4.45;;;1.27;;
69847;SDS011;57143;55.940;37.496;2023-08-21T13:18:00;6.23;;;1.40;;
69847;SDS011;57143;55.940;37.496;2023-08-21T13:20:28;6.55;;;1.23;;
69847;SDS011;57143;55.940;37.496;2023-08-21T13:22:55;5.40;;;1.60;;
69847;SDS011;57143;55.940;37.496;2023-08-21T13:25:23;5.93;;;1.45;;
69847;SDS011;57143;55.940;37.496;2023-08-21T13:27:52;4.95;;;1.60;;
69847;SDS011;57143;55.940;37.496;2023-08-21T13:30:21;5.17;;;1.40;;
69847;SDS011;57143;55.940;37.496;2023-08-21T13:32:48;4.65;;;1.27;;
69847;SDS011;57143;55.940;37.496;2023-08-21T13:35:16;6.03;;;1.30;;
69847;SDS011;57143;55.940;37.496;2023-08-21T13:37:45;4.28;;;1.20;;
69847;SDS011;57143;55.940;37.496;2023-08-21T13:40:13;4.70;;;1.05;;
69847;SDS011;57143;55.940;37.496;2023-08-21T13:42:42;4.70;;;1.30;;
69847;SDS011;57143;55.940;37.496;2023-08-21T13:45:11;5.13;;;1.42;;
69847;SDS011;57143;55.940;37.496;2023-08-21T13:47:42;5.07;;;1.58;;
69847;SDS011;57143;55.940;37.496;2023-08-21T13:50:11;6.57;;;1.83;;
69847;SDS011;57143;55.940;37.496;2023-08-21T13:52:38;5.97;;;2.20;;
69847;SDS011;57143;55.940;37.496;2023-08-21T13:55:06;6.10;;;1.07;;
69847;SDS011;57143;55.940;37.496;2023-08-21T13:57:34;6.35;;;1.50;;
69847;SDS011;57143;55.940;37.496;2023-08-21T14:00:03;4.88;;;1.42;;
69847;SDS011;57143;55.940;37.496;2023-08-21T14:02:37;5.80;;;1.50;;
69847;SDS011;57143;55.940;37.496;2023-08-21T14:05:07;4.60;;;1.17;;
69847;SDS011;57143;55.940;37.496;2023-08-21T14:07:35;5.53;;;1.90;;
69847;SDS011;57143;55.940;37.496;2023-08-21T14:10:04;5.75;;;2.25;;
69847;SDS011;57143;55.940;37.496;2023-08-21T14:12:32;6.32;;;2.22;;
69847;SDS011;57143;55.940;37.496;2023-08-21T14:14:59;4.85;;;1.55;;
69847;SDS011;57143;55.940;37.496;2023-08-21T14:17:32;5.00;;;1.50;;
69847;SDS011;57143;55.940;37.496;2023-08-21T14:19:59;6.27;;;1.20;;
69847;SDS011;57143;55.940;37.496;2023-08-21T14:22:31;5.72;;;1.60;;
69847;SDS011;57143;55.940;37.496;2023-08-21T14:24:59;4.88;;;1.60;;
69847;SDS011;57143;55.940;37.496;2023-08-21T14:27:26;4.85;;;1.40;;
69847;SDS011;57143;55.940;37.496;2023-08-21T14:29:53;5.82;;;1.50;;
69847;SDS011;57143;55.940;37.496;2023-08-21T14:32:20;5.20;;;2.17;;
69847;SDS011;57143;55.940;37.496;2023-08-21T14:34:48;7.25;;;1.70;;
69847;SDS011;57143;55.940;37.496;2023-08-21T14:37:18;5.47;;;1.98;;
69847;SDS011;57143;55.940;37.496;2023-08-21T14:39:47;7.45;;;1.90;;
69847;SDS011;57143;55.940;37.496;2023-08-21T14:42:15;9.10;;;2.00;;
69847;SDS011;57143;55.940;37.496;2023-08-21T14:44:42;5.33;;;1.20;;